createdAt,value
2022-12-27T00:01:48.442Z,12.70
2022-12-27T00:04:15.013Z,6.07
2022-12-27T00:06:41.841Z,11.27
2022-12-27T00:09:08.558Z,13.10
2022-12-27T00:11:35.084Z,10.13
2022-12-27T00:14:03.644Z,7.97
2022-12-27T00:16:30.657Z,11.33
2022-12-27T00:18:57.592Z,8.90
2022-12-27T00:21:24.106Z,9.80
2022-12-27T00:23:56.292Z,8.77
2022-12-27T00:26:25.181Z,11.67
2022-12-27T00:28:51.818Z,9.90
2022-12-27T00:31:19.197Z,9.27
2022-12-27T00:33:47.258Z,6.53
2022-12-27T00:36:17.287Z,11.30
2022-12-27T00:38:43.839Z,14.10
2022-12-27T00:41:11.182Z,14.33
2022-12-27T00:43:37.693Z,9.43
2022-12-27T00:46:04.618Z,14.73
2022-12-27T00:48:31.223Z,8.83
2022-12-27T00:51:06.647Z,9.87
2022-12-27T00:53:33.960Z,9.10
2022-12-27T00:56:00.793Z,14.80
2022-12-27T00:58:27.558Z,8.93
2022-12-27T01:00:54.248Z,11.37
2022-12-27T01:03:20.927Z,12.63
2022-12-27T01:05:47.464Z,9.47
2022-12-27T01:08:13.939Z,7.93
2022-12-27T01:10:41.496Z,11.03
2022-12-27T01:13:08.124Z,9.20
2022-12-27T01:15:34.587Z,10.77
2022-12-27T01:18:01.070Z,8.67
2022-12-27T01:20:27.922Z,7.47
2022-12-27T01:22:55.149Z,9.50
2022-12-27T01:25:21.711Z,9.13
2022-12-27T01:27:48.185Z,9.10
2022-12-27T01:30:14.714Z,9.10
2022-12-27T01:32:41.199Z,9.07
2022-12-27T01:35:08.047Z,10.60
2022-12-27T01:37:34.524Z,14.97
2022-12-27T01:40:01.630Z,13.10
2022-12-27T01:42:46.917Z,13.33
2022-12-27T01:45:25.342Z,13.47
2022-12-27T01:47:56.630Z,11.23
2022-12-27T01:50:30.968Z,12.07
2022-12-27T01:53:30.545Z,11.80
2022-12-27T01:55:59.675Z,9.47
2022-12-27T01:58:28.237Z,11.20
2022-12-27T02:00:55.439Z,7.40
2022-12-27T02:03:30.423Z,6.80
2022-12-27T02:05:58.463Z,8.07
2022-12-27T02:08:46.829Z,9.43
2022-12-27T02:11:13.782Z,8.57
2022-12-27T02:13:43.550Z,12.03
2022-12-27T02:16:18.008Z,9.13
2022-12-27T02:18:45.274Z,11.73
2022-12-27T02:21:41.073Z,12.97
2022-12-27T02:24:27.692Z,11.37
2022-12-27T02:27:09.897Z,10.63
2022-12-27T02:29:51.917Z,9.70
2022-12-27T02:32:41.964Z,10.37
2022-12-27T02:35:22.095Z,12.27
2022-12-27T02:37:58.375Z,8.90
2022-12-27T02:40:44.540Z,10.40
2022-12-27T02:43:29.574Z,10.00
2022-12-27T02:46:23.257Z,13.93
2022-12-27T02:49:13.370Z,14.67
2022-12-27T02:52:16.106Z,13.37
2022-12-27T02:55:08.949Z,18.23
2022-12-27T02:58:23.022Z,9.73
2022-12-27T03:01:20.339Z,7.87
2022-12-27T03:04:12.395Z,11.63
2022-12-27T03:06:55.848Z,10.07
2022-12-27T03:10:01.331Z,11.07
2022-12-27T03:12:54.477Z,7.63
2022-12-27T03:15:53.986Z,9.90
2022-12-27T03:18:45.309Z,9.80
2022-12-27T03:21:34.872Z,8.83
2022-12-27T03:24:19.973Z,13.20
2022-12-27T03:26:47.893Z,7.67
2022-12-27T03:29:36.458Z,9.40
2022-12-27T03:32:24.495Z,10.63
2022-12-27T03:34:54.950Z,6.17
2022-12-27T03:37:45.555Z,5.57
2022-12-27T03:41:14.770Z,4.90
2022-12-27T03:43:41.727Z,6.07
2022-12-27T03:46:33.724Z,7.23
2022-12-27T03:49:11.853Z,9.13
2022-12-27T03:51:45.111Z,6.37
2022-12-27T03:54:17.191Z,8.63
2022-12-27T03:56:43.748Z,8.30
2022-12-27T03:59:11.347Z,9.17
2022-12-27T04:01:39.037Z,6.40
2022-12-27T04:04:05.569Z,6.70
2022-12-27T04:06:32.009Z,7.13
2022-12-27T04:09:17.103Z,7.10
2022-12-27T04:12:02.142Z,10.40
2022-12-27T04:14:47.292Z,4.63
2022-12-27T04:17:32.110Z,6.83
2022-12-27T04:20:17.024Z,7.93
2022-12-27T04:23:02.199Z,4.63
2022-12-27T04:25:47.433Z,6.87
2022-12-27T04:28:32.483Z,5.23
2022-12-27T04:31:17.664Z,5.90
2022-12-27T04:34:02.706Z,8.00
2022-12-27T04:36:29.184Z,5.83
2022-12-27T04:38:55.634Z,4.80
2022-12-27T04:41:40.767Z,6.20
2022-12-27T04:44:25.921Z,9.10
2022-12-27T04:47:11.044Z,3.80
2022-12-27T04:49:56.020Z,6.10
2022-12-27T04:52:42.118Z,5.33
2022-12-27T04:55:23.554Z,4.40
2022-12-27T04:57:51.264Z,2.53
2022-12-27T05:00:37.908Z,2.83
2022-12-27T05:03:07.269Z,1.80
2022-12-27T05:05:35.357Z,3.23
2022-12-27T05:08:21.583Z,2.03
2022-12-27T05:11:06.682Z,2.63
2022-12-27T05:13:51.837Z,2.93
2022-12-27T05:16:18.480Z,2.37
2022-12-27T05:18:44.998Z,3.53
2022-12-27T05:21:11.483Z,4.20
2022-12-27T05:24:03.420Z,2.83
2022-12-27T05:26:32.596Z,3.60
2022-12-27T05:28:59.732Z,4.77
2022-12-27T05:31:28.640Z,3.13
2022-12-27T05:33:55.684Z,3.30
2022-12-27T05:36:22.167Z,2.33
2022-12-27T05:38:48.835Z,2.80
2022-12-27T05:41:15.332Z,5.20
2022-12-27T05:43:41.835Z,3.17
2022-12-27T05:46:09.528Z,3.70
2022-12-27T05:48:36.582Z,3.70
2022-12-27T05:51:13.294Z,3.57
2022-12-27T05:53:40.002Z,4.40
2022-12-27T05:56:07.323Z,4.63
2022-12-27T05:58:34.075Z,4.13
2022-12-27T06:01:00.988Z,3.90
2022-12-27T06:03:27.721Z,6.97
2022-12-27T06:06:00.611Z,5.07
2022-12-27T06:08:27.427Z,6.97
2022-12-27T06:11:08.761Z,7.90
2022-12-27T06:13:35.747Z,7.33
2022-12-27T06:16:03.928Z,6.70
2022-12-27T06:18:31.780Z,6.47
2022-12-27T06:21:10.492Z,6.93
2022-12-27T06:23:38.720Z,6.20
2022-12-27T06:26:09.305Z,7.67
2022-12-27T06:28:36.080Z,8.20
2022-12-27T06:31:02.941Z,9.33
2022-12-27T06:33:29.810Z,10.50
2022-12-27T06:35:56.346Z,9.83
2022-12-27T06:38:22.929Z,8.13
2022-12-27T06:40:49.393Z,9.60
2022-12-27T06:43:15.929Z,9.20
2022-12-27T06:45:42.509Z,9.73
2022-12-27T06:48:09.035Z,14.33
2022-12-27T06:50:36.862Z,11.73
2022-12-27T06:53:03.409Z,11.13
2022-12-27T06:55:29.848Z,9.30
2022-12-27T06:57:56.443Z,11.43
2022-12-27T07:00:22.952Z,9.43
2022-12-27T07:02:49.635Z,16.77
2022-12-27T07:05:16.335Z,15.40
2022-12-27T07:07:42.837Z,16.43
2022-12-27T07:10:09.768Z,17.27
2022-12-27T07:12:37.324Z,15.30
2022-12-27T07:15:07.826Z,14.70
2022-12-27T07:17:36.069Z,18.20
2022-12-27T07:20:07.356Z,16.23
2022-12-27T07:22:34.396Z,18.97
2022-12-27T07:25:00.888Z,15.83
2022-12-27T07:27:27.330Z,14.40
2022-12-27T07:29:53.776Z,17.70
2022-12-27T07:32:20.201Z,14.57
2022-12-27T07:34:46.659Z,10.33
2022-12-27T07:39:40.723Z,13.67
2022-12-27T07:42:08.706Z,15.97
2022-12-27T07:44:35.497Z,10.33
2022-12-27T07:47:02.166Z,10.97
2022-12-27T07:49:28.645Z,14.00
2022-12-27T07:51:55.216Z,13.57
2022-12-27T07:54:21.805Z,15.37
2022-12-27T07:56:48.437Z,15.20
2022-12-27T07:59:15.170Z,15.53
2022-12-27T08:02:01.832Z,17.17
2022-12-27T08:04:28.943Z,17.63
2022-12-27T08:07:01.403Z,14.87
2022-12-27T08:09:30.549Z,17.33
2022-12-27T08:11:56.985Z,16.37
2022-12-27T08:14:24.439Z,15.27
2022-12-27T08:16:51.046Z,16.77
2022-12-27T08:19:17.583Z,13.33
2022-12-27T08:21:44.029Z,17.87
2022-12-27T08:24:10.488Z,15.87
2022-12-27T08:26:37.013Z,8.63
2022-12-27T08:29:03.506Z,12.90
2022-12-27T08:31:29.947Z,10.40
2022-12-27T08:33:58.605Z,9.53
2022-12-27T08:39:12.179Z,9.37
2022-12-27T08:41:39.140Z,9.93
2022-12-27T08:44:06.193Z,10.07
2022-12-27T08:46:32.794Z,12.03
2022-12-27T08:48:59.294Z,8.30
2022-12-27T08:51:34.360Z,8.27
2022-12-27T08:54:05.250Z,12.37
2022-12-27T08:56:31.799Z,13.87
2022-12-27T08:58:58.348Z,10.97
2022-12-27T09:01:25.923Z,13.17
2022-12-27T09:03:52.558Z,11.27
2022-12-27T09:06:21.866Z,11.43
2022-12-27T09:08:49.636Z,11.03
2022-12-27T09:11:19.043Z,10.87
2022-12-27T09:13:45.696Z,12.53
2022-12-27T09:16:15.475Z,8.87
2022-12-27T09:18:42.844Z,16.50
2022-12-27T09:21:14.172Z,10.37
2022-12-27T09:23:41.294Z,14.83
2022-12-27T09:26:15.626Z,14.17
2022-12-27T09:28:42.642Z,10.00
2022-12-27T09:31:10.534Z,12.97
2022-12-27T09:33:37.474Z,10.87
2022-12-27T09:36:10.138Z,10.57
2022-12-27T09:38:37.098Z,8.77
2022-12-27T09:42:25.968Z,11.23
2022-12-27T09:44:33.657Z,10.87
2022-12-27T09:47:05.402Z,9.77
2022-12-27T09:49:58.645Z,10.67
2022-12-27T09:52:35.092Z,9.60
2022-12-27T09:55:05.309Z,17.03
2022-12-27T09:57:43.770Z,9.40
2022-12-27T10:00:34.589Z,14.63
2022-12-27T10:03:05.078Z,8.57
2022-12-27T10:05:33.924Z,11.03
2022-12-27T10:08:13.821Z,11.07
2022-12-27T10:10:43.492Z,14.87
2022-12-27T10:13:19.297Z,12.57
2022-12-27T10:16:24.418Z,11.67
2022-12-27T10:19:26.419Z,15.43
2022-12-27T10:22:00.699Z,15.93
2022-12-27T10:24:40.686Z,13.27
2022-12-27T10:27:15.699Z,16.47
2022-12-27T10:29:42.915Z,15.80
2022-12-27T10:32:12.449Z,17.53
2022-12-27T10:34:38.893Z,13.63
2022-12-27T10:37:05.376Z,11.43
2022-12-27T10:39:35.116Z,17.73
2022-12-27T10:42:29.678Z,14.77
2022-12-27T10:45:24.454Z,13.37
2022-12-27T10:47:52.013Z,13.47
2022-12-27T10:50:23.704Z,12.80
2022-12-27T10:52:57.184Z,14.00
2022-12-27T10:55:38.981Z,13.83
2022-12-27T10:58:34.881Z,16.33
2022-12-27T11:01:01.362Z,15.57
2022-12-27T11:03:28.512Z,13.00
2022-12-27T11:06:06.893Z,16.27
2022-12-27T11:08:33.461Z,14.67
2022-12-27T11:11:24.227Z,14.97
2022-12-27T11:13:51.454Z,12.87
2022-12-27T11:16:38.261Z,10.37
2022-12-27T11:19:05.385Z,7.80
2022-12-27T11:21:32.085Z,9.63
2022-12-27T11:24:01.838Z,9.33
2022-12-27T11:26:42.164Z,10.13
2022-12-27T11:29:16.817Z,9.47
2022-12-27T11:31:48.288Z,10.17
2022-12-27T11:34:19.177Z,12.83
2022-12-27T11:36:50.570Z,8.07
2022-12-27T11:39:40.198Z,10.13
2022-12-27T11:42:13.086Z,11.33
2022-12-27T11:44:42.877Z,9.40
2022-12-27T11:47:31.488Z,11.60
2022-12-27T11:50:13.309Z,11.87
2022-12-27T11:52:49.301Z,11.60
2022-12-27T11:55:50.631Z,17.13
2022-12-27T11:58:38.438Z,17.70
2022-12-27T12:01:27.803Z,11.40
2022-12-27T12:04:06.906Z,11.97
2022-12-27T12:06:36.351Z,14.43
2022-12-27T12:09:10.845Z,12.13
2022-12-27T12:12:09.676Z,11.27
2022-12-27T12:14:55.167Z,14.33
2022-12-27T12:17:40.331Z,14.37
2022-12-27T12:20:21.937Z,16.27
2022-12-27T12:23:06.249Z,14.63
2022-12-27T12:25:44.940Z,15.63
2022-12-27T12:28:57.602Z,18.10
2022-12-27T12:31:35.958Z,12.10
2022-12-27T12:34:08.834Z,14.70
2022-12-27T12:36:59.167Z,10.53
2022-12-27T12:39:35.427Z,12.93
2022-12-27T12:42:21.395Z,10.67
2022-12-27T12:45:18.039Z,10.87
2022-12-27T12:47:59.686Z,13.47
2022-12-27T12:50:54.833Z,8.17
2022-12-27T12:53:45.631Z,7.20
2022-12-27T12:56:32.107Z,7.53
2022-12-27T12:59:12.137Z,7.87
2022-12-27T13:01:51.062Z,7.83
2022-12-27T13:04:42.800Z,7.90
2022-12-27T13:07:24.257Z,6.47
2022-12-27T13:09:59.813Z,8.80
2022-12-27T13:12:31.201Z,4.77
2022-12-27T13:15:21.254Z,6.50
2022-12-27T13:18:30.596Z,7.37
2022-12-27T13:21:19.557Z,8.37
2022-12-27T13:24:07.506Z,7.00
2022-12-27T13:26:46.123Z,6.17
2022-12-27T13:29:36.767Z,10.23
2022-12-27T13:32:18.026Z,12.60
2022-12-27T13:34:47.899Z,9.70
2022-12-27T13:37:38.599Z,10.53
2022-12-27T13:42:56.974Z,13.97
2022-12-27T13:45:38.857Z,9.80
2022-12-27T13:48:12.747Z,10.50
2022-12-27T13:50:45.435Z,12.33
2022-12-27T13:53:21.244Z,12.60
2022-12-27T13:55:47.672Z,16.70
2022-12-27T13:58:59.247Z,8.83
2022-12-27T14:01:29.245Z,15.17
2022-12-27T14:04:34.836Z,15.07
2022-12-27T14:07:16.543Z,11.47
2022-12-27T14:10:15.356Z,11.43
2022-12-27T14:12:55.994Z,15.60
2022-12-27T14:15:25.726Z,14.10
2022-12-27T14:18:17.542Z,12.87
2022-12-27T14:21:21.734Z,18.63
2022-12-27T14:24:13.303Z,18.67
2022-12-27T14:27:31.346Z,15.77
2022-12-27T14:30:25.899Z,15.73
2022-12-27T14:33:23.748Z,13.23
2022-12-27T14:36:10.261Z,13.57
2022-12-27T14:38:50.709Z,12.03
2022-12-27T14:41:42.084Z,13.93
2022-12-27T14:44:20.746Z,19.77
2022-12-27T14:47:13.681Z,14.23
2022-12-27T14:49:40.486Z,12.57
2022-12-27T14:52:26.624Z,15.60
2022-12-27T14:55:14.238Z,13.97
2022-12-27T14:58:06.458Z,14.60
2022-12-27T15:00:58.105Z,12.53
2022-12-27T15:03:46.426Z,19.90
2022-12-27T15:06:40.107Z,18.67
2022-12-27T15:09:36.995Z,11.73
2022-12-27T15:12:14.971Z,16.73
2022-12-27T15:15:35.742Z,12.10
2022-12-27T15:18:16.790Z,19.27
2022-12-27T15:20:54.187Z,13.27
2022-12-27T15:23:38.850Z,15.17
2022-12-27T15:26:27.901Z,14.83
2022-12-27T15:29:04.944Z,17.53
2022-12-27T15:31:46.044Z,12.60
2022-12-27T15:34:31.213Z,12.83
2022-12-27T15:36:58.071Z,16.77
2022-12-27T15:39:33.817Z,11.53
2022-12-27T15:42:18.950Z,16.60
2022-12-27T15:44:50.773Z,17.13
2022-12-27T15:47:55.768Z,20.57
2022-12-27T15:50:54.222Z,22.83
2022-12-27T15:53:28.709Z,21.97
2022-12-27T15:56:17.230Z,31.33
2022-12-27T15:58:44.063Z,26.57
2022-12-27T16:01:22.179Z,22.13
2022-12-27T16:03:52.847Z,16.17
2022-12-27T16:06:34.741Z,15.10
2022-12-27T16:09:26.295Z,17.37
2022-12-27T16:12:09.849Z,20.73
2022-12-27T16:14:39.161Z,19.77
2022-12-27T16:17:23.000Z,16.73
2022-12-27T16:20:15.737Z,18.93
2022-12-27T16:23:03.444Z,20.60
2022-12-27T16:25:37.428Z,14.13
2022-12-27T16:28:07.649Z,16.80
2022-12-27T16:31:07.944Z,22.80
2022-12-27T16:33:41.337Z,22.90
2022-12-27T16:36:34.348Z,21.03
2022-12-27T16:39:16.122Z,21.40
2022-12-27T16:41:57.696Z,15.93
2022-12-27T16:44:24.129Z,15.67
2022-12-27T16:46:59.638Z,16.63
2022-12-27T16:49:29.441Z,15.20
2022-12-27T16:52:03.874Z,18.17
2022-12-27T16:54:52.299Z,15.30
2022-12-27T16:57:33.182Z,15.63
2022-12-27T17:00:26.538Z,18.17
2022-12-27T17:02:53.215Z,12.23
2022-12-27T17:05:25.761Z,16.10
2022-12-27T17:07:55.909Z,16.00
2022-12-27T17:10:28.628Z,17.13
2022-12-27T17:13:10.403Z,13.33
2022-12-27T17:16:08.045Z,13.27
2022-12-27T17:18:44.063Z,15.80
2022-12-27T17:21:30.072Z,18.07
2022-12-27T17:23:59.827Z,17.13
2022-12-27T17:26:54.111Z,14.50
2022-12-27T17:29:29.971Z,17.33
2022-12-27T17:32:09.022Z,16.27
2022-12-27T17:34:48.678Z,12.70
2022-12-27T17:37:24.027Z,15.17
2022-12-27T17:40:21.573Z,16.03
2022-12-27T17:43:15.832Z,18.50
2022-12-27T17:46:23.884Z,22.53
2022-12-27T17:48:53.798Z,20.10
2022-12-27T17:51:24.033Z,19.67
2022-12-27T17:54:11.316Z,22.07
2022-12-27T17:57:07.686Z,17.93
2022-12-27T17:59:35.024Z,15.00
2022-12-27T18:02:11.745Z,13.60
2022-12-27T18:04:53.479Z,13.87
2022-12-27T18:07:26.080Z,14.93
2022-12-27T18:10:04.916Z,15.17
2022-12-27T18:12:36.316Z,16.20
2022-12-27T18:15:04.388Z,15.33
2022-12-27T18:17:39.956Z,16.63
2022-12-27T18:20:28.379Z,13.97
2022-12-27T18:23:01.223Z,13.10
2022-12-27T18:26:07.892Z,18.50
2022-12-27T18:28:38.550Z,15.20
2022-12-27T18:31:19.498Z,20.50
2022-12-27T18:33:58.981Z,17.13
2022-12-27T18:36:31.525Z,28.20
2022-12-27T18:39:01.144Z,19.33
2022-12-27T18:41:35.119Z,24.73
2022-12-27T18:44:01.878Z,20.87
2022-12-27T18:46:31.784Z,18.20
2022-12-27T18:48:58.815Z,18.20
2022-12-27T18:51:38.667Z,19.10
2022-12-27T18:54:30.380Z,18.87
2022-12-27T18:56:59.789Z,16.37
2022-12-27T18:59:29.218Z,23.27
2022-12-27T19:01:58.357Z,22.20
2022-12-27T19:04:34.078Z,16.33
2022-12-27T19:07:12.741Z,23.63
2022-12-27T19:09:40.894Z,16.17
2022-12-27T19:12:35.229Z,19.10
2022-12-27T19:15:02.651Z,21.93
2022-12-27T19:17:30.668Z,23.13
2022-12-27T19:20:06.803Z,21.60
2022-12-27T19:22:42.431Z,20.00
2022-12-27T19:25:18.475Z,25.53
2022-12-27T19:28:09.223Z,19.77
2022-12-27T19:30:48.346Z,19.17
2022-12-27T19:33:27.890Z,23.40
2022-12-27T19:35:54.738Z,24.63
2022-12-27T19:38:26.734Z,28.53
2022-12-27T19:41:02.793Z,26.23
2022-12-27T19:43:44.638Z,29.23
2022-12-27T19:46:12.613Z,35.10
2022-12-27T19:48:39.514Z,32.27
2022-12-27T19:51:06.484Z,29.80
2022-12-27T19:53:40.041Z,29.73
2022-12-27T19:56:10.967Z,27.37
2022-12-27T19:58:37.822Z,30.90
2022-12-27T20:01:04.709Z,31.67
2022-12-27T20:03:32.275Z,34.37
2022-12-27T20:06:12.600Z,33.27
2022-12-27T20:08:48.461Z,23.37
2022-12-27T20:11:17.702Z,30.00
2022-12-27T20:13:44.305Z,29.13
2022-12-27T20:16:12.848Z,27.20
2022-12-27T20:18:42.588Z,28.13
2022-12-27T20:21:13.578Z,23.57
2022-12-27T20:23:40.100Z,32.50
2022-12-27T20:26:06.690Z,28.57
2022-12-27T20:28:33.493Z,27.47
2022-12-27T20:31:09.006Z,27.43
2022-12-27T20:33:35.597Z,29.17
2022-12-27T20:36:02.162Z,28.90
2022-12-27T20:38:28.667Z,26.93
2022-12-27T20:40:55.156Z,23.83
2022-12-27T20:43:22.722Z,29.23
2022-12-27T20:45:49.230Z,27.60
2022-12-27T20:48:15.767Z,31.83
2022-12-27T20:50:42.330Z,32.80
2022-12-27T20:53:10.599Z,35.37
2022-12-27T20:55:37.101Z,36.53
2022-12-27T20:58:03.548Z,28.83
2022-12-27T21:00:30.023Z,24.83
2022-12-27T21:02:57.094Z,26.30
2022-12-27T21:05:23.752Z,24.67
2022-12-27T21:07:50.227Z,26.80
2022-12-27T21:10:16.736Z,21.67
2022-12-27T21:12:43.196Z,21.03
2022-12-27T21:15:10.842Z,25.00
2022-12-27T21:17:37.350Z,26.30
2022-12-27T21:20:06.273Z,26.30
2022-12-27T21:22:32.747Z,22.50
2022-12-27T21:24:59.210Z,24.63
2022-12-27T21:27:25.658Z,25.03
2022-12-27T21:29:52.168Z,21.40
2022-12-27T21:32:18.920Z,20.97
2022-12-27T21:34:45.614Z,22.43
2022-12-27T21:37:14.447Z,21.60
2022-12-27T21:39:40.984Z,19.77
2022-12-27T21:42:07.606Z,22.10
2022-12-27T21:44:36.894Z,19.13
2022-12-27T21:47:03.395Z,22.27
2022-12-27T21:49:30.355Z,25.57
2022-12-27T21:51:57.080Z,21.13
2022-12-27T21:54:24.094Z,22.73
2022-12-27T21:56:50.759Z,22.30
2022-12-27T21:59:17.244Z,24.17
2022-12-27T22:01:50.306Z,22.20
2022-12-27T22:04:18.253Z,24.20
2022-12-27T22:06:47.182Z,20.60
2022-12-27T22:09:23.980Z,21.87
2022-12-27T22:12:16.499Z,19.13
2022-12-27T22:14:44.344Z,19.73
2022-12-27T22:17:10.837Z,20.40
2022-12-27T22:19:37.311Z,26.73
2022-12-27T22:22:07.796Z,19.73
2022-12-27T22:24:34.262Z,22.77
2022-12-27T22:27:00.717Z,22.97
2022-12-27T22:29:31.552Z,20.67
2022-12-27T22:32:01.409Z,19.47
2022-12-27T22:34:28.320Z,18.90
2022-12-27T22:37:05.511Z,20.00
2022-12-27T22:39:32.632Z,22.03
2022-12-27T22:41:59.412Z,21.03
2022-12-27T22:44:27.177Z,22.93
2022-12-27T22:49:40.174Z,22.30
2022-12-27T22:52:06.716Z,17.50
2022-12-27T22:55:03.243Z,22.57
2022-12-27T22:57:19.960Z,19.43
2022-12-27T22:59:46.616Z,20.23
2022-12-27T23:02:27.594Z,24.13
2022-12-27T23:04:54.208Z,16.33
2022-12-27T23:07:21.121Z,20.40
2022-12-27T23:10:07.857Z,20.53
2022-12-27T23:12:34.315Z,21.93
2022-12-27T23:15:00.809Z,20.70
2022-12-27T23:17:27.238Z,19.30
2022-12-27T23:19:53.697Z,23.83
2022-12-27T23:22:20.208Z,25.10
2022-12-27T23:24:46.647Z,20.70
2022-12-27T23:27:27.438Z,23.73
2022-12-27T23:29:55.153Z,22.33
2022-12-27T23:32:21.607Z,19.10
2022-12-27T23:34:48.041Z,21.20
2022-12-27T23:37:14.494Z,20.50
2022-12-27T23:39:41.170Z,23.03
2022-12-27T23:42:08.961Z,21.27
2022-12-27T23:44:35.466Z,23.37
2022-12-27T23:47:06.213Z,21.37
2022-12-27T23:49:33.099Z,20.53
2022-12-27T23:52:00.075Z,23.17
2022-12-27T23:54:26.567Z,20.53
2022-12-27T23:56:53.103Z,20.43
2022-12-27T23:59:19.971Z,23.80
